FYLZ/LUD METAR and TAF weather

Enter ICAO airport designator
Station Type Date Time Source
FYLZ METAR 2018/11/12 23:00 UTC NOAA

FYLZ 122300Z AUTO 22002KT //// // ////// 14/12 Q1015


Station Type Date Time Source
FYLZ Decoded METAR 2018/11/12 23:00 UTC NOAA

Luderitz / Diaz Point, Namibia (FYLZ) 26-41S 015-15E
Nov 12, 2018 - 06:00 PM EST / 2018.11.12 2300 UTC
Wind: from the SW (220 degrees) at 2 MPH (2 KT):0
Temperature: 57 F (14 C)
Dew Point: 53 F (12 C)
Relative Humidity: 87%
Pressure (altimeter): 29.97 in. Hg (1015 hPa)
ob: FYLZ 122300Z AUTO 22002KT //// // ////// 14/12 Q1015
cycle: 23

Station Type Date Time Source
FYLZ TAF 2014/11/15 15:19 UTC NOAA

TAF FYLZ 151400Z 1515/1524 18015G28KT CAVOK
BECMG 1518/1520 16020KT


Example: see airport list